sensor_id;sensor_type;location;lat;lon;timestamp;P1;durP1;ratioP1;P2;durP2;ratioP2
28762;SDS011;15918;51.270;6.522;2023-05-10T00:01:10;17.92;;;16.02;;
28762;SDS011;15918;51.270;6.522;2023-05-10T00:03:36;17.73;;;15.63;;
28762;SDS011;15918;51.270;6.522;2023-05-10T00:06:02;17.08;;;15.27;;
28762;SDS011;15918;51.270;6.522;2023-05-10T00:08:28;16.63;;;15.00;;
28762;SDS011;15918;51.270;6.522;2023-05-10T00:10:53;15.60;;;14.00;;
28762;SDS011;15918;51.270;6.522;2023-05-10T00:13:19;15.95;;;14.25;;
28762;SDS011;15918;51.270;6.522;2023-05-10T00:15:44;14.45;;;12.95;;
28762;SDS011;15918;51.270;6.522;2023-05-10T00:18:10;14.85;;;13.25;;
28762;SDS011;15918;51.270;6.522;2023-05-10T00:20:36;13.88;;;12.20;;
28762;SDS011;15918;51.270;6.522;2023-05-10T00:23:01;12.95;;;11.65;;
28762;SDS011;15918;51.270;6.522;2023-05-10T00:25:27;13.27;;;11.77;;
28762;SDS011;15918;51.270;6.522;2023-05-10T00:27:53;14.00;;;11.93;;
28762;SDS011;15918;51.270;6.522;2023-05-10T00:30:20;12.35;;;11.18;;
28762;SDS011;15918;51.270;6.522;2023-05-10T00:32:45;12.90;;;11.32;;
28762;SDS011;15918;51.270;6.522;2023-05-10T00:35:13;12.40;;;11.30;;
28762;SDS011;15918;51.270;6.522;2023-05-10T00:37:38;12.60;;;11.30;;
28762;SDS011;15918;51.270;6.522;2023-05-10T00:40:04;12.38;;;11.18;;
28762;SDS011;15918;51.270;6.522;2023-05-10T00:42:30;11.75;;;10.70;;
28762;SDS011;15918;51.270;6.522;2023-05-10T00:44:56;13.57;;;11.70;;
28762;SDS011;15918;51.270;6.522;2023-05-10T00:47:22;12.23;;;10.93;;
28762;SDS011;15918;51.270;6.522;2023-05-10T00:49:48;13.60;;;12.30;;
28762;SDS011;15918;51.270;6.522;2023-05-10T00:52:14;14.13;;;12.63;;
28762;SDS011;15918;51.270;6.522;2023-05-10T00:54:40;13.65;;;12.25;;
28762;SDS011;15918;51.270;6.522;2023-05-10T00:57:06;13.35;;;12.02;;
28762;SDS011;15918;51.270;6.522;2023-05-10T00:59:32;12.75;;;11.55;;
28762;SDS011;15918;51.270;6.522;2023-05-10T01:01:58;13.10;;;11.70;;
28762;SDS011;15918;51.270;6.522;2023-05-10T01:04:23;13.77;;;12.35;;
28762;SDS011;15918;51.270;6.522;2023-05-10T01:06:50;14.57;;;12.02;;
28762;SDS011;15918;51.270;6.522;2023-05-10T01:09:17;12.32;;;11.05;;
28762;SDS011;15918;51.270;6.522;2023-05-10T01:11:43;12.15;;;10.82;;
28762;SDS011;15918;51.270;6.522;2023-05-10T01:14:10;12.10;;;10.90;;
28762;SDS011;15918;51.270;6.522;2023-05-10T01:16:36;12.90;;;10.68;;
28762;SDS011;15918;51.270;6.522;2023-05-10T01:19:17;13.27;;;11.02;;
28762;SDS011;15918;51.270;6.522;2023-05-10T01:21:52;12.00;;;10.77;;
28762;SDS011;15918;51.270;6.522;2023-05-10T01:33:11;10.50;;;9.38;;
28762;SDS011;15918;51.270;6.522;2023-05-10T01:36:05;9.98;;;8.98;;
28762;SDS011;15918;51.270;6.522;2023-05-10T01:38:53;10.82;;;8.40;;
28762;SDS011;15918;51.270;6.522;2023-05-10T01:41:33;8.15;;;7.35;;
28762;SDS011;15918;51.270;6.522;2023-05-10T01:46:39;8.25;;;7.40;;
28762;SDS011;15918;51.270;6.522;2023-05-10T01:49:29;8.40;;;7.43;;
28762;SDS011;15918;51.270;6.522;2023-05-10T01:51:54;10.75;;;7.30;;
28762;SDS011;15918;51.270;6.522;2023-05-10T01:54:25;8.88;;;7.85;;
28762;SDS011;15918;51.270;6.522;2023-05-10T01:57:02;9.77;;;7.93;;
28762;SDS011;15918;51.270;6.522;2023-05-10T01:59:34;8.10;;;7.30;;
28762;SDS011;15918;51.270;6.522;2023-05-10T02:02:01;8.65;;;7.40;;
28762;SDS011;15918;51.270;6.522;2023-05-10T02:04:29;8.60;;;7.80;;
28762;SDS011;15918;51.270;6.522;2023-05-10T02:06:56;7.60;;;6.78;;
28762;SDS011;15918;51.270;6.522;2023-05-10T02:09:22;9.57;;;7.80;;
28762;SDS011;15918;51.270;6.522;2023-05-10T02:11:50;7.70;;;7.00;;
28762;SDS011;15918;51.270;6.522;2023-05-10T02:14:16;9.57;;;7.22;;
28762;SDS011;15918;51.270;6.522;2023-05-10T02:16:44;8.45;;;7.63;;
28762;SDS011;15918;51.270;6.522;2023-05-10T02:19:11;8.02;;;7.28;;
28762;SDS011;15918;51.270;6.522;2023-05-10T02:21:39;8.73;;;6.97;;
28762;SDS011;15918;51.270;6.522;2023-05-10T02:24:06;8.95;;;7.07;;
28762;SDS011;15918;51.270;6.522;2023-05-10T02:26:33;8.98;;;7.50;;
28762;SDS011;15918;51.270;6.522;2023-05-10T02:29:01;8.82;;;6.63;;
28762;SDS011;15918;51.270;6.522;2023-05-10T02:31:28;8.55;;;7.32;;
28762;SDS011;15918;51.270;6.522;2023-05-10T02:33:58;8.55;;;7.45;;
28762;SDS011;15918;51.270;6.522;2023-05-10T02:36:25;8.55;;;7.68;;
28762;SDS011;15918;51.270;6.522;2023-05-10T02:38:55;8.48;;;7.65;;
28762;SDS011;15918;51.270;6.522;2023-05-10T02:41:22;9.00;;;8.07;;
28762;SDS011;15918;51.270;6.522;2023-05-10T02:43:50;8.48;;;7.68;;
28762;SDS011;15918;51.270;6.522;2023-05-10T02:46:18;9.80;;;7.75;;
28762;SDS011;15918;51.270;6.522;2023-05-10T02:48:44;10.35;;;8.23;;
28762;SDS011;15918;51.270;6.522;2023-05-10T02:51:10;9.65;;;8.20;;
28762;SDS011;15918;51.270;6.522;2023-05-10T02:53:38;9.90;;;8.07;;
28762;SDS011;15918;51.270;6.522;2023-05-10T02:56:11;8.35;;;6.97;;
28762;SDS011;15918;51.270;6.522;2023-05-10T02:58:40;8.85;;;8.05;;
28762;SDS011;15918;51.270;6.522;2023-05-10T03:01:05;9.25;;;7.95;;
28762;SDS011;15918;51.270;6.522;2023-05-10T03:03:32;8.38;;;7.47;;
28762;SDS011;15918;51.270;6.522;2023-05-10T03:05:58;8.60;;;7.70;;
28762;SDS011;15918;51.270;6.522;2023-05-10T03:08:24;9.77;;;7.45;;
28762;SDS011;15918;51.270;6.522;2023-05-10T03:16:22;9.60;;;7.85;;
28762;SDS011;15918;51.270;6.522;2023-05-10T03:18:58;8.55;;;7.65;;
28762;SDS011;15918;51.270;6.522;2023-05-10T03:21:31;10.45;;;8.60;;
28762;SDS011;15918;51.270;6.522;2023-05-10T03:24:16;9.18;;;8.05;;
28762;SDS011;15918;51.270;6.522;2023-05-10T03:26:43;9.33;;;8.33;;
28762;SDS011;15918;51.270;6.522;2023-05-10T03:29:11;10.35;;;9.27;;
28762;SDS011;15918;51.270;6.522;2023-05-10T03:31:39;13.68;;;9.63;;
28762;SDS011;15918;51.270;6.522;2023-05-10T03:34:05;11.00;;;9.73;;
28762;SDS011;15918;51.270;6.522;2023-05-10T03:36:31;12.77;;;10.48;;
28762;SDS011;15918;51.270;6.522;2023-05-10T03:38:57;11.70;;;10.50;;
28762;SDS011;15918;51.270;6.522;2023-05-10T03:41:22;14.23;;;12.70;;
28762;SDS011;15918;51.270;6.522;2023-05-10T03:43:48;17.10;;;12.73;;
28762;SDS011;15918;51.270;6.522;2023-05-10T03:46:14;14.02;;;12.52;;
28762;SDS011;15918;51.270;6.522;2023-05-10T03:48:39;16.05;;;13.35;;
28762;SDS011;15918;51.270;6.522;2023-05-10T03:51:05;17.90;;;13.65;;
28762;SDS011;15918;51.270;6.522;2023-05-10T03:53:30;21.08;;;13.55;;
28762;SDS011;15918;51.270;6.522;2023-05-10T03:55:56;19.02;;;15.63;;
28762;SDS011;15918;51.270;6.522;2023-05-10T03:58:21;16.50;;;14.20;;
28762;SDS011;15918;51.270;6.522;2023-05-10T04:00:47;18.20;;;13.85;;
28762;SDS011;15918;51.270;6.522;2023-05-10T04:03:13;19.00;;;15.18;;
28762;SDS011;15918;51.270;6.522;2023-05-10T04:05:38;20.95;;;15.98;;
28762;SDS011;15918;51.270;6.522;2023-05-10T04:08:04;21.20;;;15.50;;
28762;SDS011;15918;51.270;6.522;2023-05-10T04:10:30;21.20;;;17.38;;
28762;SDS011;15918;51.270;6.522;2023-05-10T04:12:56;19.33;;;16.73;;
28762;SDS011;15918;51.270;6.522;2023-05-10T04:15:22;21.35;;;17.52;;
28762;SDS011;15918;51.270;6.522;2023-05-10T04:17:48;18.45;;;16.08;;
28762;SDS011;15918;51.270;6.522;2023-05-10T04:20:13;25.70;;;18.17;;
28762;SDS011;15918;51.270;6.522;2023-05-10T04:22:39;28.80;;;22.15;;
28762;SDS011;15918;51.270;6.522;2023-05-10T04:25:08;25.10;;;20.48;;
28762;SDS011;15918;51.270;6.522;2023-05-10T04:27:34;24.10;;;19.83;;
28762;SDS011;15918;51.270;6.522;2023-05-10T04:30:00;23.83;;;20.77;;
28762;SDS011;15918;51.270;6.522;2023-05-10T04:32:26;29.67;;;21.90;;
28762;SDS011;15918;51.270;6.522;2023-05-10T04:34:52;28.17;;;21.42;;
28762;SDS011;15918;51.270;6.522;2023-05-10T04:37:18;30.67;;;23.63;;
28762;SDS011;15918;51.270;6.522;2023-05-10T04:39:44;28.13;;;22.60;;
28762;SDS011;15918;51.270;6.522;2023-05-10T04:42:09;29.02;;;24.08;;
28762;SDS011;15918;51.270;6.522;2023-05-10T04:44:35;35.28;;;25.88;;
28762;SDS011;15918;51.270;6.522;2023-05-10T04:47:01;31.73;;;25.42;;
28762;SDS011;15918;51.270;6.522;2023-05-10T04:49:28;33.10;;;25.55;;
28762;SDS011;15918;51.270;6.522;2023-05-10T04:51:54;36.03;;;26.27;;
28762;SDS011;15918;51.270;6.522;2023-05-10T04:54:20;33.58;;;25.88;;
28762;SDS011;15918;51.270;6.522;2023-05-10T04:56:46;35.10;;;26.73;;
28762;SDS011;15918;51.270;6.522;2023-05-10T04:59:11;37.45;;;27.75;;
28762;SDS011;15918;51.270;6.522;2023-05-10T05:01:37;36.25;;;26.50;;
28762;SDS011;15918;51.270;6.522;2023-05-10T05:04:02;34.63;;;24.90;;
28762;SDS011;15918;51.270;6.522;2023-05-10T05:06:28;38.20;;;25.25;;
28762;SDS011;15918;51.270;6.522;2023-05-10T05:08:54;30.30;;;24.10;;
28762;SDS011;15918;51.270;6.522;2023-05-10T05:11:19;32.90;;;24.98;;
28762;SDS011;15918;51.270;6.522;2023-05-10T05:13:46;30.63;;;23.88;;
28762;SDS011;15918;51.270;6.522;2023-05-10T05:16:11;32.47;;;24.10;;
28762;SDS011;15918;51.270;6.522;2023-05-10T05:18:37;33.50;;;24.25;;
28762;SDS011;15918;51.270;6.522;2023-05-10T05:21:03;28.70;;;21.92;;
28762;SDS011;15918;51.270;6.522;2023-05-10T05:23:37;28.10;;;22.02;;
28762;SDS011;15918;51.270;6.522;2023-05-10T05:26:03;27.80;;;21.48;;
28762;SDS011;15918;51.270;6.522;2023-05-10T05:28:29;24.38;;;19.35;;
28762;SDS011;15918;51.270;6.522;2023-05-10T05:30:57;28.45;;;20.63;;
28762;SDS011;15918;51.270;6.522;2023-05-10T05:33:23;26.92;;;20.58;;
28762;SDS011;15918;51.270;6.522;2023-05-10T05:35:48;24.73;;;19.05;;
28762;SDS011;15918;51.270;6.522;2023-05-10T05:38:15;27.05;;;18.90;;
28762;SDS011;15918;51.270;6.522;2023-05-10T05:40:42;25.83;;;20.65;;
28762;SDS011;15918;51.270;6.522;2023-05-10T05:43:07;33.55;;;20.83;;
28762;SDS011;15918;51.270;6.522;2023-05-10T05:45:33;29.63;;;20.40;;
28762;SDS011;15918;51.270;6.522;2023-05-10T05:47:59;30.90;;;21.73;;
28762;SDS011;15918;51.270;6.522;2023-05-10T05:50:24;36.55;;;23.80;;
28762;SDS011;15918;51.270;6.522;2023-05-10T05:52:50;39.33;;;24.33;;
28762;SDS011;15918;51.270;6.522;2023-05-10T05:55:16;44.47;;;27.60;;
28762;SDS011;15918;51.270;6.522;2023-05-10T05:57:42;45.13;;;28.10;;
28762;SDS011;15918;51.270;6.522;2023-05-10T06:00:08;45.42;;;27.48;;
28762;SDS011;15918;51.270;6.522;2023-05-10T06:02:34;39.90;;;27.08;;
28762;SDS011;15918;51.270;6.522;2023-05-10T06:05:00;47.05;;;27.40;;
28762;SDS011;15918;51.270;6.522;2023-05-10T06:07:25;42.88;;;27.10;;
28762;SDS011;15918;51.270;6.522;2023-05-10T06:09:51;45.88;;;28.00;;
28762;SDS011;15918;51.270;6.522;2023-05-10T06:12:17;40.45;;;27.73;;
28762;SDS011;15918;51.270;6.522;2023-05-10T06:14:42;42.58;;;29.00;;
28762;SDS011;15918;51.270;6.522;2023-05-10T06:17:08;48.55;;;28.48;;
28762;SDS011;15918;51.270;6.522;2023-05-10T06:19:33;40.15;;;25.92;;
28762;SDS011;15918;51.270;6.522;2023-05-10T06:21:59;41.00;;;28.13;;
28762;SDS011;15918;51.270;6.522;2023-05-10T06:24:24;41.38;;;28.00;;
28762;SDS011;15918;51.270;6.522;2023-05-10T06:26:50;41.30;;;28.08;;
28762;SDS011;15918;51.270;6.522;2023-05-10T06:29:16;39.47;;;26.55;;
28762;SDS011;15918;51.270;6.522;2023-05-10T06:31:41;38.53;;;25.40;;
28762;SDS011;15918;51.270;6.522;2023-05-10T06:34:07;40.67;;;25.05;;
28762;SDS011;15918;51.270;6.522;2023-05-10T06:36:33;38.88;;;25.50;;
28762;SDS011;15918;51.270;6.522;2023-05-10T06:38:59;40.65;;;24.92;;
28762;SDS011;15918;51.270;6.522;2023-05-10T06:41:24;37.25;;;24.42;;
28762;SDS011;15918;51.270;6.522;2023-05-10T06:43:50;34.47;;;22.67;;
28762;SDS011;15918;51.270;6.522;2023-05-10T06:46:15;34.38;;;22.70;;
28762;SDS011;15918;51.270;6.522;2023-05-10T06:48:41;31.98;;;21.70;;
28762;SDS011;15918;51.270;6.522;2023-05-10T06:51:06;36.30;;;24.30;;
28762;SDS011;15918;51.270;6.522;2023-05-10T06:53:32;29.38;;;21.00;;
28762;SDS011;15918;51.270;6.522;2023-05-10T06:55:57;31.58;;;21.42;;
28762;SDS011;15918;51.270;6.522;2023-05-10T06:58:23;28.23;;;20.33;;
28762;SDS011;15918;51.270;6.522;2023-05-10T07:00:49;29.08;;;21.88;;
28762;SDS011;15918;51.270;6.522;2023-05-10T07:03:14;28.35;;;21.48;;
28762;SDS011;15918;51.270;6.522;2023-05-10T07:05:40;33.45;;;24.08;;
28762;SDS011;15918;51.270;6.522;2023-05-10T07:08:05;38.10;;;25.33;;
28762;SDS011;15918;51.270;6.522;2023-05-10T07:10:31;43.58;;;27.60;;
28762;SDS011;15918;51.270;6.522;2023-05-10T07:12:58;40.90;;;27.67;;
28762;SDS011;15918;51.270;6.522;2023-05-10T07:15:23;44.92;;;30.02;;
28762;SDS011;15918;51.270;6.522;2023-05-10T07:17:49;46.28;;;30.35;;
28762;SDS011;15918;51.270;6.522;2023-05-10T07:20:15;44.75;;;31.10;;
28762;SDS011;15918;51.270;6.522;2023-05-10T07:22:40;50.03;;;31.73;;
28762;SDS011;15918;51.270;6.522;2023-05-10T07:25:06;41.90;;;30.23;;
28762;SDS011;15918;51.270;6.522;2023-05-10T07:27:32;53.40;;;32.83;;
28762;SDS011;15918;51.270;6.522;2023-05-10T07:29:57;45.63;;;30.95;;
28762;SDS011;15918;51.270;6.522;2023-05-10T07:32:23;43.70;;;30.75;;
28762;SDS011;15918;51.270;6.522;2023-05-10T07:34:49;48.13;;;31.60;;
28762;SDS011;15918;51.270;6.522;2023-05-10T07:37:15;48.55;;;33.47;;
28762;SDS011;15918;51.270;6.522;2023-05-10T07:39:40;44.95;;;31.55;;
28762;SDS011;15918;51.270;6.522;2023-05-10T07:42:06;53.28;;;33.95;;
28762;SDS011;15918;51.270;6.522;2023-05-10T07:44:32;50.85;;;32.72;;
28762;SDS011;15918;51.270;6.522;2023-05-10T07:46:57;48.05;;;33.42;;
28762;SDS011;15918;51.270;6.522;2023-05-10T07:49:23;45.20;;;31.90;;
28762;SDS011;15918;51.270;6.522;2023-05-10T07:51:49;51.05;;;33.83;;
28762;SDS011;15918;51.270;6.522;2023-05-10T07:54:15;54.15;;;35.45;;
28762;SDS011;15918;51.270;6.522;2023-05-10T07:56:40;49.47;;;33.83;;
28762;SDS011;15918;51.270;6.522;2023-05-10T07:59:14;52.50;;;34.08;;
28762;SDS011;15918;51.270;6.522;2023-05-10T08:01:40;48.45;;;32.60;;
28762;SDS011;15918;51.270;6.522;2023-05-10T08:04:06;50.45;;;34.45;;
28762;SDS011;15918;51.270;6.522;2023-05-10T08:06:32;49.25;;;31.92;;
28762;SDS011;15918;51.270;6.522;2023-05-10T08:08:58;43.85;;;30.80;;
28762;SDS011;15918;51.270;6.522;2023-05-10T08:11:23;44.35;;;31.00;;
28762;SDS011;15918;51.270;6.522;2023-05-10T08:13:49;39.97;;;29.90;;
28762;SDS011;15918;51.270;6.522;2023-05-10T08:16:16;44.88;;;31.70;;
28762;SDS011;15918;51.270;6.522;2023-05-10T08:18:42;42.80;;;29.65;;
28762;SDS011;15918;51.270;6.522;2023-05-10T08:21:09;43.00;;;29.95;;
28762;SDS011;15918;51.270;6.522;2023-05-10T08:23:36;40.33;;;29.02;;
28762;SDS011;15918;51.270;6.522;2023-05-10T08:26:02;38.58;;;28.20;;
28762;SDS011;15918;51.270;6.522;2023-05-10T08:28:27;38.95;;;28.13;;
28762;SDS011;15918;51.270;6.522;2023-05-10T08:30:53;37.10;;;27.02;;
28762;SDS011;15918;51.270;6.522;2023-05-10T08:33:18;35.90;;;27.55;;
28762;SDS011;15918;51.270;6.522;2023-05-10T08:35:44;34.65;;;26.42;;
28762;SDS011;15918;51.270;6.522;2023-05-10T08:38:10;37.33;;;27.30;;
28762;SDS011;15918;51.270;6.522;2023-05-10T08:40:39;31.77;;;24.80;;
28762;SDS011;15918;51.270;6.522;2023-05-10T08:43:11;31.27;;;24.15;;
28762;SDS011;15918;51.270;6.522;2023-05-10T08:45:38;34.67;;;25.70;;
28762;SDS011;15918;51.270;6.522;2023-05-10T08:48:06;35.58;;;25.45;;
28762;SDS011;15918;51.270;6.522;2023-05-10T08:50:37;33.55;;;24.20;;
28762;SDS011;15918;51.270;6.522;2023-05-10T08:53:08;31.50;;;23.05;;
28762;SDS011;15918;51.270;6.522;2023-05-10T08:55:36;33.08;;;22.63;;
28762;SDS011;15918;51.270;6.522;2023-05-10T08:58:04;32.92;;;22.00;;
28762;SDS011;15918;51.270;6.522;2023-05-10T09:00:30;33.30;;;22.33;;
28762;SDS011;15918;51.270;6.522;2023-05-10T09:02:56;26.00;;;19.92;;
28762;SDS011;15918;51.270;6.522;2023-05-10T09:05:23;25.75;;;19.77;;
28762;SDS011;15918;51.270;6.522;2023-05-10T09:07:49;29.67;;;19.58;;
28762;SDS011;15918;51.270;6.522;2023-05-10T09:10:14;23.70;;;18.40;;
28762;SDS011;15918;51.270;6.522;2023-05-10T09:12:40;28.15;;;19.63;;
28762;SDS011;15918;51.270;6.522;2023-05-10T09:15:07;27.40;;;19.65;;
28762;SDS011;15918;51.270;6.522;2023-05-10T09:17:34;23.42;;;18.40;;
28762;SDS011;15918;51.270;6.522;2023-05-10T09:20:00;26.90;;;18.45;;
28762;SDS011;15918;51.270;6.522;2023-05-10T09:22:27;25.35;;;18.63;;
28762;SDS011;15918;51.270;6.522;2023-05-10T09:27:33;22.48;;;17.48;;
28762;SDS011;15918;51.270;6.522;2023-05-10T09:29:58;22.95;;;17.35;;
28762;SDS011;15918;51.270;6.522;2023-05-10T09:32:38;23.23;;;17.35;;
28762;SDS011;15918;51.270;6.522;2023-05-10T09:37:41;22.63;;;17.15;;
28762;SDS011;15918;51.270;6.522;2023-05-10T09:40:11;26.33;;;16.38;;
28762;SDS011;15918;51.270;6.522;2023-05-10T09:42:42;23.88;;;17.60;;
28762;SDS011;15918;51.270;6.522;2023-05-10T09:45:15;24.42;;;18.27;;
28762;SDS011;15918;51.270;6.522;2023-05-10T09:47:40;30.52;;;20.02;;
28762;SDS011;15918;51.270;6.522;2023-05-10T09:50:06;24.65;;;17.85;;
28762;SDS011;15918;51.270;6.522;2023-05-10T09:52:48;23.40;;;18.23;;
28762;SDS011;15918;51.270;6.522;2023-05-10T09:55:19;29.00;;;20.13;;
28762;SDS011;15918;51.270;6.522;2023-05-10T09:57:48;24.65;;;18.70;;
28762;SDS011;15918;51.270;6.522;2023-05-10T10:00:23;28.40;;;20.85;;
28762;SDS011;15918;51.270;6.522;2023-05-10T10:02:55;25.23;;;19.63;;
28762;SDS011;15918;51.270;6.522;2023-05-10T10:05:33;24.05;;;20.02;;
28762;SDS011;15918;51.270;6.522;2023-05-10T10:08:00;24.80;;;18.13;;
28762;SDS011;15918;51.270;6.522;2023-05-10T10:10:30;25.10;;;18.75;;
28762;SDS011;15918;51.270;6.522;2023-05-10T10:12:57;28.00;;;20.00;;
28762;SDS011;15918;51.270;6.522;2023-05-10T10:15:24;22.98;;;18.05;;
28762;SDS011;15918;51.270;6.522;2023-05-10T10:17:51;22.10;;;16.77;;
28762;SDS011;15918;51.270;6.522;2023-05-10T10:20:17;23.77;;;17.27;;
28762;SDS011;15918;51.270;6.522;2023-05-10T10:22:44;25.13;;;18.40;;
28762;SDS011;15918;51.270;6.522;2023-05-10T10:25:10;24.38;;;17.48;;
28762;SDS011;15918;51.270;6.522;2023-05-10T10:35:31;29.95;;;22.27;;
28762;SDS011;15918;51.270;6.522;2023-05-10T10:37:57;30.63;;;23.08;;
28762;SDS011;15918;51.270;6.522;2023-05-10T10:40:23;31.08;;;22.83;;
28762;SDS011;15918;51.270;6.522;2023-05-10T10:42:50;33.47;;;24.98;;
28762;SDS011;15918;51.270;6.522;2023-05-10T10:45:16;33.72;;;24.88;;
28762;SDS011;15918;51.270;6.522;2023-05-10T10:47:42;32.67;;;24.90;;
28762;SDS011;15918;51.270;6.522;2023-05-10T10:50:10;34.50;;;25.67;;
28762;SDS011;15918;51.270;6.522;2023-05-10T10:52:41;32.92;;;25.38;;
28762;SDS011;15918;51.270;6.522;2023-05-10T10:57:44;36.33;;;27.35;;
28762;SDS011;15918;51.270;6.522;2023-05-10T11:05:42;50.53;;;37.03;;
28762;SDS011;15918;51.270;6.522;2023-05-10T11:10:39;48.20;;;36.88;;
28762;SDS011;15918;51.270;6.522;2023-05-10T11:13:13;46.60;;;34.83;;
28762;SDS011;15918;51.270;6.522;2023-05-10T11:15:39;41.90;;;30.50;;
28762;SDS011;15918;51.270;6.522;2023-05-10T11:18:26;38.30;;;27.25;;
28762;SDS011;15918;51.270;6.522;2023-05-10T11:21:00;31.42;;;24.02;;
28762;SDS011;15918;51.270;6.522;2023-05-10T11:25:58;24.00;;;20.00;;
28762;SDS011;15918;51.270;6.522;2023-05-10T11:28:25;28.05;;;21.42;;
28762;SDS011;15918;51.270;6.522;2023-05-10T11:30:52;28.02;;;21.50;;
28762;SDS011;15918;51.270;6.522;2023-05-10T11:33:18;22.75;;;19.98;;
28762;SDS011;15918;51.270;6.522;2023-05-10T11:35:44;27.75;;;20.52;;
28762;SDS011;15918;51.270;6.522;2023-05-10T11:38:11;23.77;;;19.52;;
28762;SDS011;15918;51.270;6.522;2023-05-10T11:40:37;25.85;;;19.08;;
28762;SDS011;15918;51.270;6.522;2023-05-10T11:43:04;31.10;;;21.90;;
28762;SDS011;15918;51.270;6.522;2023-05-10T11:45:34;28.65;;;21.48;;
28762;SDS011;15918;51.270;6.522;2023-05-10T11:48:00;25.27;;;20.58;;
28762;SDS011;15918;51.270;6.522;2023-05-10T11:50:27;31.15;;;21.33;;
28762;SDS011;15918;51.270;6.522;2023-05-10T11:52:53;26.48;;;21.98;;
28762;SDS011;15918;51.270;6.522;2023-05-10T11:55:20;30.83;;;23.38;;
28762;SDS011;15918;51.270;6.522;2023-05-10T11:57:46;31.73;;;23.27;;
28762;SDS011;15918;51.270;6.522;2023-05-10T12:00:16;31.35;;;22.45;;
28762;SDS011;15918;51.270;6.522;2023-05-10T12:02:42;35.58;;;23.95;;
28762;SDS011;15918;51.270;6.522;2023-05-10T12:05:08;29.95;;;22.40;;
28762;SDS011;15918;51.270;6.522;2023-05-10T12:07:34;29.00;;;22.13;;
28762;SDS011;15918;51.270;6.522;2023-05-10T12:10:10;30.55;;;22.02;;
28762;SDS011;15918;51.270;6.522;2023-05-10T12:12:43;32.17;;;22.20;;
28762;SDS011;15918;51.270;6.522;2023-05-10T12:15:20;31.02;;;24.63;;
28762;SDS011;15918;51.270;6.522;2023-05-10T12:17:49;31.05;;;23.63;;
28762;SDS011;15918;51.270;6.522;2023-05-10T12:20:21;30.80;;;23.60;;
28762;SDS011;15918;51.270;6.522;2023-05-10T12:22:49;31.27;;;23.77;;
28762;SDS011;15918;51.270;6.522;2023-05-10T12:25:16;31.88;;;24.58;;
28762;SDS011;15918;51.270;6.522;2023-05-10T12:27:50;34.35;;;25.25;;
28762;SDS011;15918;51.270;6.522;2023-05-10T12:30:21;32.58;;;23.27;;
28762;SDS011;15918;51.270;6.522;2023-05-10T12:32:48;30.15;;;24.88;;
28762;SDS011;15918;51.270;6.522;2023-05-10T12:35:13;27.05;;;22.55;;
28762;SDS011;15918;51.270;6.522;2023-05-10T12:37:40;27.23;;;23.23;;
28762;SDS011;15918;51.270;6.522;2023-05-10T12:40:07;29.00;;;24.25;;
28762;SDS011;15918;51.270;6.522;2023-05-10T12:42:35;28.88;;;23.95;;
28762;SDS011;15918;51.270;6.522;2023-05-10T12:45:01;31.15;;;25.63;;
28762;SDS011;15918;51.270;6.522;2023-05-10T12:47:27;29.75;;;24.08;;
28762;SDS011;15918;51.270;6.522;2023-05-10T12:49:53;28.60;;;24.45;;
28762;SDS011;15918;51.270;6.522;2023-05-10T12:52:19;29.15;;;23.42;;
28762;SDS011;15918;51.270;6.522;2023-05-10T12:54:45;32.17;;;25.02;;
28762;SDS011;15918;51.270;6.522;2023-05-10T12:57:11;31.10;;;25.35;;
28762;SDS011;15918;51.270;6.522;2023-05-10T12:59:37;30.42;;;25.65;;
28762;SDS011;15918;51.270;6.522;2023-05-10T13:02:03;29.23;;;24.58;;
28762;SDS011;15918;51.270;6.522;2023-05-10T13:04:29;31.33;;;25.95;;
28762;SDS011;15918;51.270;6.522;2023-05-10T13:06:54;34.33;;;25.80;;
28762;SDS011;15918;51.270;6.522;2023-05-10T13:09:27;28.90;;;25.80;;
28762;SDS011;15918;51.270;6.522;2023-05-10T13:11:55;33.67;;;26.25;;
28762;SDS011;15918;51.270;6.522;2023-05-10T13:14:21;31.45;;;25.85;;
28762;SDS011;15918;51.270;6.522;2023-05-10T13:16:47;29.58;;;24.33;;
28762;SDS011;15918;51.270;6.522;2023-05-10T13:19:16;31.98;;;23.63;;
28762;SDS011;15918;51.270;6.522;2023-05-10T13:21:42;34.10;;;24.92;;
28762;SDS011;15918;51.270;6.522;2023-05-10T13:24:09;29.05;;;23.30;;
28762;SDS011;15918;51.270;6.522;2023-05-10T13:26:35;29.40;;;23.23;;
28762;SDS011;15918;51.270;6.522;2023-05-10T13:29:01;29.02;;;24.08;;
28762;SDS011;15918;51.270;6.522;2023-05-10T13:31:27;28.25;;;23.10;;
28762;SDS011;15918;51.270;6.522;2023-05-10T13:33:53;30.85;;;23.98;;
28762;SDS011;15918;51.270;6.522;2023-05-10T13:36:18;29.30;;;24.15;;
28762;SDS011;15918;51.270;6.522;2023-05-10T13:38:44;28.20;;;22.45;;
28762;SDS011;15918;51.270;6.522;2023-05-10T13:41:10;27.38;;;22.83;;
28762;SDS011;15918;51.270;6.522;2023-05-10T13:43:36;23.70;;;20.98;;
28762;SDS011;15918;51.270;6.522;2023-05-10T13:46:01;26.42;;;20.33;;
28762;SDS011;15918;51.270;6.522;2023-05-10T13:48:27;21.10;;;18.90;;
28762;SDS011;15918;51.270;6.522;2023-05-10T13:50:53;22.15;;;18.42;;
28762;SDS011;15918;51.270;6.522;2023-05-10T13:53:18;21.38;;;17.73;;
28762;SDS011;15918;51.270;6.522;2023-05-10T13:55:44;19.65;;;17.05;;
28762;SDS011;15918;51.270;6.522;2023-05-10T13:58:09;22.65;;;16.60;;
28762;SDS011;15918;51.270;6.522;2023-05-10T14:00:35;16.60;;;14.70;;
28762;SDS011;15918;51.270;6.522;2023-05-10T14:03:01;20.48;;;15.13;;
28762;SDS011;15918;51.270;6.522;2023-05-10T14:05:27;19.05;;;16.35;;
28762;SDS011;15918;51.270;6.522;2023-05-10T14:07:52;16.40;;;14.48;;
28762;SDS011;15918;51.270;6.522;2023-05-10T14:10:18;17.83;;;14.10;;
28762;SDS011;15918;51.270;6.522;2023-05-10T14:12:44;19.98;;;16.00;;
28762;SDS011;15918;51.270;6.522;2023-05-10T14:15:10;16.48;;;14.32;;
28762;SDS011;15918;51.270;6.522;2023-05-10T14:17:36;19.73;;;14.98;;
28762;SDS011;15918;51.270;6.522;2023-05-10T14:20:02;15.57;;;13.82;;
28762;SDS011;15918;51.270;6.522;2023-05-10T14:22:29;16.15;;;13.15;;
28762;SDS011;15918;51.270;6.522;2023-05-10T14:24:54;14.73;;;12.77;;
28762;SDS011;15918;51.270;6.522;2023-05-10T14:27:20;16.45;;;13.05;;
28762;SDS011;15918;51.270;6.522;2023-05-10T14:29:46;14.43;;;12.88;;
28762;SDS011;15918;51.270;6.522;2023-05-10T14:32:12;13.85;;;12.38;;
28762;SDS011;15918;51.270;6.522;2023-05-10T14:34:38;13.43;;;12.02;;
28762;SDS011;15918;51.270;6.522;2023-05-10T14:37:03;12.80;;;10.85;;
28762;SDS011;15918;51.270;6.522;2023-05-10T14:39:29;16.65;;;12.55;;
28762;SDS011;15918;51.270;6.522;2023-05-10T14:41:55;12.48;;;10.57;;
28762;SDS011;15918;51.270;6.522;2023-05-10T14:44:21;17.02;;;12.80;;
28762;SDS011;15918;51.270;6.522;2023-05-10T14:46:46;13.63;;;10.73;;
28762;SDS011;15918;51.270;6.522;2023-05-10T14:49:13;12.63;;;10.07;;
28762;SDS011;15918;51.270;6.522;2023-05-10T14:51:39;15.55;;;10.18;;
28762;SDS011;15918;51.270;6.522;2023-05-10T14:54:04;12.25;;;10.98;;
28762;SDS011;15918;51.270;6.522;2023-05-10T14:56:30;12.40;;;11.10;;
28762;SDS011;15918;51.270;6.522;2023-05-10T14:58:56;14.70;;;10.38;;
28762;SDS011;15918;51.270;6.522;2023-05-10T15:01:22;16.65;;;12.15;;
28762;SDS011;15918;51.270;6.522;2023-05-10T15:03:47;14.68;;;12.13;;
28762;SDS011;15918;51.270;6.522;2023-05-10T15:06:14;16.30;;;11.82;;